sensor_id;sensor_type;location;lat;lon;timestamp;temperature;humidity
21419;DHT22;10870;51.384;10.316;2022-12-18T00:01:16;-6.70;99.90
21419;DHT22;10870;51.384;10.316;2022-12-18T00:03:17;-6.50;99.90
21419;DHT22;10870;51.384;10.316;2022-12-18T00:05:18;-6.70;99.90
21419;DHT22;10870;51.384;10.316;2022-12-18T00:07:21;-6.80;99.90
21419;DHT22;10870;51.384;10.316;2022-12-18T00:09:23;-6.60;99.90
21419;DHT22;10870;51.384;10.316;2022-12-18T00:11:26;-6.80;99.90
21419;DHT22;10870;51.384;10.316;2022-12-18T00:13:32;-6.70;99.90
21419;DHT22;10870;51.384;10.316;2022-12-18T00:15:35;-6.80;99.90
21419;DHT22;10870;51.384;10.316;2022-12-18T00:17:37;-6.70;99.90
21419;DHT22;10870;51.384;10.316;2022-12-18T00:19:38;-6.80;99.90
21419;DHT22;10870;51.384;10.316;2022-12-18T00:21:42;-6.80;99.90
21419;DHT22;10870;51.384;10.316;2022-12-18T00:23:49;-6.90;99.90
21419;DHT22;10870;51.384;10.316;2022-12-18T00:25:53;-6.90;99.90
21419;DHT22;10870;51.384;10.316;2022-12-18T00:27:54;-6.80;99.90
21419;DHT22;10870;51.384;10.316;2022-12-18T00:29:55;-6.90;99.90
21419;DHT22;10870;51.384;10.316;2022-12-18T00:31:58;-6.80;99.90
21419;DHT22;10870;51.384;10.316;2022-12-18T00:33:59;-6.90;99.90
21419;DHT22;10870;51.384;10.316;2022-12-18T00:36:26;-6.80;99.90
21419;DHT22;10870;51.384;10.316;2022-12-18T00:38:28;-6.80;99.90
21419;DHT22;10870;51.384;10.316;2022-12-18T00:40:31;-6.90;99.90
21419;DHT22;10870;51.384;10.316;2022-12-18T00:42:35;-6.80;99.90
21419;DHT22;10870;51.384;10.316;2022-12-18T00:44:54;-6.90;99.90
21419;DHT22;10870;51.384;10.316;2022-12-18T00:46:58;-6.80;99.90
21419;DHT22;10870;51.384;10.316;2022-12-18T00:48:59;-6.80;99.90
21419;DHT22;10870;51.384;10.316;2022-12-18T00:51:00;-6.80;99.90
21419;DHT22;10870;51.384;10.316;2022-12-18T00:53:04;-6.90;99.90
21419;DHT22;10870;51.384;10.316;2022-12-18T00:55:05;-6.90;99.90
21419;DHT22;10870;51.384;10.316;2022-12-18T00:57:06;-7.00;99.90
21419;DHT22;10870;51.384;10.316;2022-12-18T00:59:07;-6.80;99.90
21419;DHT22;10870;51.384;10.316;2022-12-18T01:01:08;-7.00;99.90
21419;DHT22;10870;51.384;10.316;2022-12-18T01:03:13;-7.20;99.90
21419;DHT22;10870;51.384;10.316;2022-12-18T01:05:15;-7.00;99.90
21419;DHT22;10870;51.384;10.316;2022-12-18T01:07:16;-7.00;99.90
21419;DHT22;10870;51.384;10.316;2022-12-18T01:09:17;-7.20;99.90
21419;DHT22;10870;51.384;10.316;2022-12-18T01:11:20;-6.80;99.90
21419;DHT22;10870;51.384;10.316;2022-12-18T01:13:21;-6.90;99.90
21419;DHT22;10870;51.384;10.316;2022-12-18T01:15:23;-7.00;99.90
21419;DHT22;10870;51.384;10.316;2022-12-18T01:17:24;-7.00;99.90
21419;DHT22;10870;51.384;10.316;2022-12-18T01:19:25;-7.00;99.90
21419;DHT22;10870;51.384;10.316;2022-12-18T01:21:26;-6.90;99.90
21419;DHT22;10870;51.384;10.316;2022-12-18T01:23:27;-6.90;99.90
21419;DHT22;10870;51.384;10.316;2022-12-18T01:25:29;-7.00;99.90
21419;DHT22;10870;51.384;10.316;2022-12-18T01:27:30;-7.00;99.90
21419;DHT22;10870;51.384;10.316;2022-12-18T01:29:34;-6.90;99.90
21419;DHT22;10870;51.384;10.316;2022-12-18T01:31:37;-6.90;99.90
21419;DHT22;10870;51.384;10.316;2022-12-18T01:33:39;-7.00;99.90
21419;DHT22;10870;51.384;10.316;2022-12-18T01:35:43;-7.00;99.90
21419;DHT22;10870;51.384;10.316;2022-12-18T01:37:47;-6.80;99.90
21419;DHT22;10870;51.384;10.316;2022-12-18T01:39:50;-6.90;99.90
21419;DHT22;10870;51.384;10.316;2022-12-18T01:41:53;-7.00;99.90
21419;DHT22;10870;51.384;10.316;2022-12-18T01:46:45;-7.00;99.90
21419;DHT22;10870;51.384;10.316;2022-12-18T01:48:56;-7.00;99.90
21419;DHT22;10870;51.384;10.316;2022-12-18T01:51:03;-7.00;99.90
21419;DHT22;10870;51.384;10.316;2022-12-18T01:53:14;-7.00;99.90
21419;DHT22;10870;51.384;10.316;2022-12-18T01:55:23;-7.10;99.90
21419;DHT22;10870;51.384;10.316;2022-12-18T01:57:26;-7.10;99.90
21419;DHT22;10870;51.384;10.316;2022-12-18T01:59:33;-7.20;99.90
21419;DHT22;10870;51.384;10.316;2022-12-18T02:01:38;-7.10;99.90
21419;DHT22;10870;51.384;10.316;2022-12-18T02:03:42;-7.30;99.90
21419;DHT22;10870;51.384;10.316;2022-12-18T02:06:06;-7.20;99.90
21419;DHT22;10870;51.384;10.316;2022-12-18T02:08:21;-7.50;99.90
21419;DHT22;10870;51.384;10.316;2022-12-18T04:37:50;-7.60;99.90
21419;DHT22;10870;51.384;10.316;2022-12-18T04:39:51;-7.60;99.90
21419;DHT22;10870;51.384;10.316;2022-12-18T04:41:52;-7.70;99.90
21419;DHT22;10870;51.384;10.316;2022-12-18T04:43:56;-7.50;99.90
21419;DHT22;10870;51.384;10.316;2022-12-18T04:46:07;-7.30;99.90
21419;DHT22;10870;51.384;10.316;2022-12-18T04:48:10;-7.70;99.90
21419;DHT22;10870;51.384;10.316;2022-12-18T04:50:13;-7.80;99.90
21419;DHT22;10870;51.384;10.316;2022-12-18T04:52:14;-7.80;99.90
21419;DHT22;10870;51.384;10.316;2022-12-18T04:54:15;-7.80;99.90
21419;DHT22;10870;51.384;10.316;2022-12-18T04:56:27;-7.80;99.90
21419;DHT22;10870;51.384;10.316;2022-12-18T04:58:31;-7.80;99.90
21419;DHT22;10870;51.384;10.316;2022-12-18T05:00:34;-7.80;99.90
21419;DHT22;10870;51.384;10.316;2022-12-18T05:02:38;-7.80;99.90
21419;DHT22;10870;51.384;10.316;2022-12-18T05:04:41;-7.80;99.90
21419;DHT22;10870;51.384;10.316;2022-12-18T05:06:45;-7.80;99.90
21419;DHT22;10870;51.384;10.316;2022-12-18T05:08:45;-7.80;99.90
21419;DHT22;10870;51.384;10.316;2022-12-18T05:10:47;-7.80;99.90
21419;DHT22;10870;51.384;10.316;2022-12-18T05:12:52;-7.80;99.90
21419;DHT22;10870;51.384;10.316;2022-12-18T05:15:05;-7.80;99.90
21419;DHT22;10870;51.384;10.316;2022-12-18T05:17:08;-7.90;99.90
21419;DHT22;10870;51.384;10.316;2022-12-18T05:19:09;-7.90;99.90
21419;DHT22;10870;51.384;10.316;2022-12-18T05:21:12;-7.70;99.90
21419;DHT22;10870;51.384;10.316;2022-12-18T05:23:19;-7.90;99.90
21419;DHT22;10870;51.384;10.316;2022-12-18T05:25:23;-7.90;99.90
21419;DHT22;10870;51.384;10.316;2022-12-18T05:27:26;-7.90;99.90
21419;DHT22;10870;51.384;10.316;2022-12-18T05:29:27;-7.90;99.90
21419;DHT22;10870;51.384;10.316;2022-12-18T05:31:33;-7.90;99.90
21419;DHT22;10870;51.384;10.316;2022-12-18T05:33:34;-7.90;99.90
21419;DHT22;10870;51.384;10.316;2022-12-18T05:35:36;-7.90;99.90
21419;DHT22;10870;51.384;10.316;2022-12-18T05:37:40;-7.90;99.90
21419;DHT22;10870;51.384;10.316;2022-12-18T05:39:43;-8.00;99.90
21419;DHT22;10870;51.384;10.316;2022-12-18T05:41:44;-8.00;99.90
21419;DHT22;10870;51.384;10.316;2022-12-18T05:43:45;-8.00;99.90
21419;DHT22;10870;51.384;10.316;2022-12-18T05:45:52;-8.00;99.90
21419;DHT22;10870;51.384;10.316;2022-12-18T05:47:53;-8.00;99.90
21419;DHT22;10870;51.384;10.316;2022-12-18T05:49:57;-7.90;99.90
21419;DHT22;10870;51.384;10.316;2022-12-18T05:52:03;-7.90;99.90
21419;DHT22;10870;51.384;10.316;2022-12-18T05:54:04;-7.90;99.90
21419;DHT22;10870;51.384;10.316;2022-12-18T05:56:10;-7.80;99.90
21419;DHT22;10870;51.384;10.316;2022-12-18T05:58:13;-7.80;99.90
21419;DHT22;10870;51.384;10.316;2022-12-18T06:00:16;-7.70;99.90
21419;DHT22;10870;51.384;10.316;2022-12-18T06:02:17;-7.70;99.90
21419;DHT22;10870;51.384;10.316;2022-12-18T06:04:18;-7.80;99.90
21419;DHT22;10870;51.384;10.316;2022-12-18T06:06:25;-7.80;99.90
21419;DHT22;10870;51.384;10.316;2022-12-18T06:08:31;-7.80;99.90
21419;DHT22;10870;51.384;10.316;2022-12-18T06:10:33;-7.80;99.90
21419;DHT22;10870;51.384;10.316;2022-12-18T06:12:34;-7.80;99.90
21419;DHT22;10870;51.384;10.316;2022-12-18T06:14:35;-7.80;99.90
21419;DHT22;10870;51.384;10.316;2022-12-18T06:16:36;-7.80;99.90
21419;DHT22;10870;51.384;10.316;2022-12-18T06:18:37;-7.80;99.90
21419;DHT22;10870;51.384;10.316;2022-12-18T06:20:38;-7.80;99.90
21419;DHT22;10870;51.384;10.316;2022-12-18T06:22:42;-7.70;99.90
21419;DHT22;10870;51.384;10.316;2022-12-18T06:24:46;-7.70;99.90
21419;DHT22;10870;51.384;10.316;2022-12-18T06:26:47;-7.70;99.90
21419;DHT22;10870;51.384;10.316;2022-12-18T06:28:50;-7.70;99.90
21419;DHT22;10870;51.384;10.316;2022-12-18T06:30:51;-7.80;99.90
21419;DHT22;10870;51.384;10.316;2022-12-18T06:32:55;-7.80;99.90
21419;DHT22;10870;51.384;10.316;2022-12-18T06:34:57;-7.70;99.90
21419;DHT22;10870;51.384;10.316;2022-12-18T06:36:58;-7.70;99.90
21419;DHT22;10870;51.384;10.316;2022-12-18T06:39:02;-7.70;99.90
21419;DHT22;10870;51.384;10.316;2022-12-18T06:41:11;-7.70;99.90
21419;DHT22;10870;51.384;10.316;2022-12-18T06:43:15;-7.70;99.90
21419;DHT22;10870;51.384;10.316;2022-12-18T06:45:16;-7.70;99.90
21419;DHT22;10870;51.384;10.316;2022-12-18T06:47:19;-7.80;99.90
21419;DHT22;10870;51.384;10.316;2022-12-18T06:49:22;-7.80;99.90
21419;DHT22;10870;51.384;10.316;2022-12-18T06:51:23;-7.80;99.90
21419;DHT22;10870;51.384;10.316;2022-12-18T06:53:27;-7.80;99.90
21419;DHT22;10870;51.384;10.316;2022-12-18T06:55:33;-7.80;99.90
21419;DHT22;10870;51.384;10.316;2022-12-18T06:57:37;-7.90;99.90
21419;DHT22;10870;51.384;10.316;2022-12-18T06:59:41;-8.00;99.90
21419;DHT22;10870;51.384;10.316;2022-12-18T07:01:47;-8.10;99.90
21419;DHT22;10870;51.384;10.316;2022-12-18T07:03:57;-8.20;99.90
21419;DHT22;10870;51.384;10.316;2022-12-18T07:06:04;-8.30;99.90
21419;DHT22;10870;51.384;10.316;2022-12-18T07:08:05;-8.30;99.90
21419;DHT22;10870;51.384;10.316;2022-12-18T07:10:07;-8.40;99.90
21419;DHT22;10870;51.384;10.316;2022-12-18T07:12:10;-8.40;99.90
21419;DHT22;10870;51.384;10.316;2022-12-18T07:14:13;-8.40;99.90
21419;DHT22;10870;51.384;10.316;2022-12-18T07:16:17;-8.50;99.90
21419;DHT22;10870;51.384;10.316;2022-12-18T07:18:18;-8.50;99.90
21419;DHT22;10870;51.384;10.316;2022-12-18T07:20:19;-8.50;99.90
21419;DHT22;10870;51.384;10.316;2022-12-18T07:22:22;-8.60;99.90
21419;DHT22;10870;51.384;10.316;2022-12-18T07:24:25;-8.60;99.90
21419;DHT22;10870;51.384;10.316;2022-12-18T07:26:27;-8.50;99.90
21419;DHT22;10870;51.384;10.316;2022-12-18T07:28:30;-8.50;99.90
21419;DHT22;10870;51.384;10.316;2022-12-18T07:30:37;-8.50;99.90
21419;DHT22;10870;51.384;10.316;2022-12-18T07:32:41;-8.40;99.90
21419;DHT22;10870;51.384;10.316;2022-12-18T07:34:42;-8.40;99.90
21419;DHT22;10870;51.384;10.316;2022-12-18T07:36:45;-8.30;99.90
21419;DHT22;10870;51.384;10.316;2022-12-18T07:38:49;-8.30;99.90
21419;DHT22;10870;51.384;10.316;2022-12-18T07:40:50;-8.30;99.90
21419;DHT22;10870;51.384;10.316;2022-12-18T07:42:51;-8.20;99.90
21419;DHT22;10870;51.384;10.316;2022-12-18T07:44:54;-8.20;99.90
21419;DHT22;10870;51.384;10.316;2022-12-18T07:46:55;-8.20;99.90
21419;DHT22;10870;51.384;10.316;2022-12-18T07:48:56;-8.20;99.90
21419;DHT22;10870;51.384;10.316;2022-12-18T07:51:05;-8.20;99.90
21419;DHT22;10870;51.384;10.316;2022-12-18T07:53:06;-8.20;99.90
21419;DHT22;10870;51.384;10.316;2022-12-18T07:55:07;-8.10;99.90
21419;DHT22;10870;51.384;10.316;2022-12-18T07:57:09;-8.10;99.90
21419;DHT22;10870;51.384;10.316;2022-12-18T07:59:12;-8.10;99.90
21419;DHT22;10870;51.384;10.316;2022-12-18T08:01:13;-8.00;99.90
21419;DHT22;10870;51.384;10.316;2022-12-18T08:03:17;-7.90;99.90
21419;DHT22;10870;51.384;10.316;2022-12-18T08:05:20;-7.90;99.90
21419;DHT22;10870;51.384;10.316;2022-12-18T08:07:26;-7.80;99.90
21419;DHT22;10870;51.384;10.316;2022-12-18T08:09:32;-7.70;99.90
21419;DHT22;10870;51.384;10.316;2022-12-18T08:13:45;-7.60;99.90
21419;DHT22;10870;51.384;10.316;2022-12-18T08:18:22;-7.50;99.90
21419;DHT22;10870;51.384;10.316;2022-12-18T08:20:23;-7.50;99.90
21419;DHT22;10870;51.384;10.316;2022-12-18T08:22:24;-7.50;99.90
21419;DHT22;10870;51.384;10.316;2022-12-18T08:24:31;-7.50;99.90
21419;DHT22;10870;51.384;10.316;2022-12-18T08:26:32;-7.50;99.90
21419;DHT22;10870;51.384;10.316;2022-12-18T08:28:41;-7.50;99.90
21419;DHT22;10870;51.384;10.316;2022-12-18T08:30:54;-7.50;99.90
21419;DHT22;10870;51.384;10.316;2022-12-18T08:32:55;-7.50;99.90
21419;DHT22;10870;51.384;10.316;2022-12-18T08:34:56;-7.60;99.90
21419;DHT22;10870;51.384;10.316;2022-12-18T08:37:02;-7.60;99.90
21419;DHT22;10870;51.384;10.316;2022-12-18T08:39:06;-7.60;99.90
21419;DHT22;10870;51.384;10.316;2022-12-18T08:41:10;-7.60;99.90
21419;DHT22;10870;51.384;10.316;2022-12-18T08:43:13;-7.60;99.90
21419;DHT22;10870;51.384;10.316;2022-12-18T08:45:34;-7.60;99.90
21419;DHT22;10870;51.384;10.316;2022-12-18T08:47:35;-7.60;99.90
21419;DHT22;10870;51.384;10.316;2022-12-18T08:49:39;-7.60;99.90
21419;DHT22;10870;51.384;10.316;2022-12-18T08:51:53;-7.60;99.90
21419;DHT22;10870;51.384;10.316;2022-12-18T08:56:41;-7.60;99.90
21419;DHT22;10870;51.384;10.316;2022-12-18T08:58:45;-7.50;99.90
21419;DHT22;10870;51.384;10.316;2022-12-18T09:00:46;-7.50;99.90
21419;DHT22;10870;51.384;10.316;2022-12-18T09:02:47;-7.50;99.90
21419;DHT22;10870;51.384;10.316;2022-12-18T09:04:50;-7.50;99.90
21419;DHT22;10870;51.384;10.316;2022-12-18T09:06:52;-7.50;99.90
21419;DHT22;10870;51.384;10.316;2022-12-18T09:08:57;-7.40;99.90
21419;DHT22;10870;51.384;10.316;2022-12-18T09:11:00;-7.40;99.90
21419;DHT22;10870;51.384;10.316;2022-12-18T09:13:01;-7.30;99.90
21419;DHT22;10870;51.384;10.316;2022-12-18T09:15:03;-7.30;99.90
21419;DHT22;10870;51.384;10.316;2022-12-18T09:17:04;-7.20;99.90
21419;DHT22;10870;51.384;10.316;2022-12-18T09:19:07;-7.10;99.90
21419;DHT22;10870;51.384;10.316;2022-12-18T09:21:18;-7.10;99.90
21419;DHT22;10870;51.384;10.316;2022-12-18T09:23:26;-7.00;99.90
21419;DHT22;10870;51.384;10.316;2022-12-18T09:25:29;-6.90;99.90
21419;DHT22;10870;51.384;10.316;2022-12-18T09:27:36;-6.80;99.90
21419;DHT22;10870;51.384;10.316;2022-12-18T09:29:40;-6.80;99.90
21419;DHT22;10870;51.384;10.316;2022-12-18T09:31:43;-6.80;99.90
21419;DHT22;10870;51.384;10.316;2022-12-18T09:33:45;-6.80;99.90
21419;DHT22;10870;51.384;10.316;2022-12-18T09:35:46;-6.70;99.90
21419;DHT22;10870;51.384;10.316;2022-12-18T09:37:52;-6.70;99.90
21419;DHT22;10870;51.384;10.316;2022-12-18T09:39:53;-6.70;99.90
21419;DHT22;10870;51.384;10.316;2022-12-18T09:41:58;-6.60;99.90
21419;DHT22;10870;51.384;10.316;2022-12-18T09:46:19;-6.60;99.90
21419;DHT22;10870;51.384;10.316;2022-12-18T09:48:31;-6.60;99.90
21419;DHT22;10870;51.384;10.316;2022-12-18T09:50:39;-6.50;99.90
21419;DHT22;10870;51.384;10.316;2022-12-18T09:52:44;-6.50;99.90
21419;DHT22;10870;51.384;10.316;2022-12-18T09:57:15;-6.40;99.90
21419;DHT22;10870;51.384;10.316;2022-12-18T09:59:24;-6.40;99.90
21419;DHT22;10870;51.384;10.316;2022-12-18T10:01:30;-6.30;99.90
21419;DHT22;10870;51.384;10.316;2022-12-18T10:03:32;-6.20;99.90
21419;DHT22;10870;51.384;10.316;2022-12-18T10:07:55;-6.10;99.90
21419;DHT22;10870;51.384;10.316;2022-12-18T10:10:53;-6.00;99.90
21419;DHT22;10870;51.384;10.316;2022-12-18T10:17:36;-5.80;99.90
21419;DHT22;10870;51.384;10.316;2022-12-18T10:19:50;-5.80;99.90
21419;DHT22;10870;51.384;10.316;2022-12-18T10:21:58;-5.80;99.90
21419;DHT22;10870;51.384;10.316;2022-12-18T10:26:35;-5.70;99.90
21419;DHT22;10870;51.384;10.316;2022-12-18T10:28:38;-5.70;99.90
21419;DHT22;10870;51.384;10.316;2022-12-18T10:30:49;-5.70;99.90
21419;DHT22;10870;51.384;10.316;2022-12-18T10:32:53;-5.60;99.90
21419;DHT22;10870;51.384;10.316;2022-12-18T10:34:56;-5.60;99.90
21419;DHT22;10870;51.384;10.316;2022-12-18T10:37:01;-5.60;99.90
21419;DHT22;10870;51.384;10.316;2022-12-18T10:39:24;-5.60;99.90
21419;DHT22;10870;51.384;10.316;2022-12-18T10:41:30;-5.60;99.90
21419;DHT22;10870;51.384;10.316;2022-12-18T10:43:37;-5.60;99.90
21419;DHT22;10870;51.384;10.316;2022-12-18T10:48:21;-5.60;99.90
21419;DHT22;10870;51.384;10.316;2022-12-18T10:50:36;-5.50;99.90
21419;DHT22;10870;51.384;10.316;2022-12-18T10:52:41;-5.50;99.90
21419;DHT22;10870;51.384;10.316;2022-12-18T10:54:54;-5.50;99.90
21419;DHT22;10870;51.384;10.316;2022-12-18T10:57:15;-5.50;99.90
21419;DHT22;10870;51.384;10.316;2022-12-18T10:59:21;-5.50;99.90
21419;DHT22;10870;51.384;10.316;2022-12-18T11:01:22;-5.50;99.90
21419;DHT22;10870;51.384;10.316;2022-12-18T11:03:34;-5.50;99.90
21419;DHT22;10870;51.384;10.316;2022-12-18T11:05:41;-5.50;99.90
21419;DHT22;10870;51.384;10.316;2022-12-18T11:07:50;-5.40;99.90
21419;DHT22;10870;51.384;10.316;2022-12-18T11:10:03;-5.40;99.90
21419;DHT22;10870;51.384;10.316;2022-12-18T11:12:18;-5.40;99.90
21419;DHT22;10870;51.384;10.316;2022-12-18T11:14:26;-5.30;99.90
21419;DHT22;10870;51.384;10.316;2022-12-18T11:16:42;-5.30;99.90
21419;DHT22;10870;51.384;10.316;2022-12-18T11:18:43;-5.30;99.90
21419;DHT22;10870;51.384;10.316;2022-12-18T11:20:59;-5.30;99.90
21419;DHT22;10870;51.384;10.316;2022-12-18T11:23:04;-5.20;99.90
21419;DHT22;10870;51.384;10.316;2022-12-18T11:27:21;-5.20;99.90
21419;DHT22;10870;51.384;10.316;2022-12-18T11:29:34;-5.10;99.90
21419;DHT22;10870;51.384;10.316;2022-12-18T11:31:35;-5.10;99.90
21419;DHT22;10870;51.384;10.316;2022-12-18T11:33:39;-5.00;99.90
21419;DHT22;10870;51.384;10.316;2022-12-18T11:35:56;-5.00;99.90
21419;DHT22;10870;51.384;10.316;2022-12-18T11:38:06;-4.90;99.90
21419;DHT22;10870;51.384;10.316;2022-12-18T11:40:17;-4.90;99.90
21419;DHT22;10870;51.384;10.316;2022-12-18T11:47:00;-4.70;99.90
21419;DHT22;10870;51.384;10.316;2022-12-18T11:49:12;-4.70;99.90
21419;DHT22;10870;51.384;10.316;2022-12-18T11:51:20;-4.60;99.90
21419;DHT22;10870;51.384;10.316;2022-12-18T11:53:25;-4.60;99.90
21419;DHT22;10870;51.384;10.316;2022-12-18T11:55:41;-4.60;99.90
21419;DHT22;10870;51.384;10.316;2022-12-18T12:00:18;-4.50;99.90
21419;DHT22;10870;51.384;10.316;2022-12-18T12:02:36;-4.40;99.90
21419;DHT22;10870;51.384;10.316;2022-12-18T12:07:31;-4.30;99.90
21419;DHT22;10870;51.384;10.316;2022-12-18T12:16:57;-4.30;99.90
21419;DHT22;10870;51.384;10.316;2022-12-18T12:21:24;-4.40;99.90
21419;DHT22;10870;51.384;10.316;2022-12-18T12:25:37;-4.40;99.90
21419;DHT22;10870;51.384;10.316;2022-12-18T12:30:00;-4.30;99.90
21419;DHT22;10870;51.384;10.316;2022-12-18T12:37:17;-4.30;99.90
21419;DHT22;10870;51.384;10.316;2022-12-18T12:39:33;-4.20;99.90
21419;DHT22;10870;51.384;10.316;2022-12-18T12:41:37;-4.20;99.90
21419;DHT22;10870;51.384;10.316;2022-12-18T12:44:00;-4.20;99.90
21419;DHT22;10870;51.384;10.316;2022-12-18T12:46:12;-4.20;99.90
21419;DHT22;10870;51.384;10.316;2022-12-18T12:48:48;-4.20;99.90
21419;DHT22;10870;51.384;10.316;2022-12-18T12:50:50;-4.20;99.90
21419;DHT22;10870;51.384;10.316;2022-12-18T12:52:55;-4.20;99.90
21419;DHT22;10870;51.384;10.316;2022-12-18T12:54:58;-4.20;99.90
21419;DHT22;10870;51.384;10.316;2022-12-18T12:59:41;-4.20;99.90
21419;DHT22;10870;51.384;10.316;2022-12-18T13:02:05;-4.20;99.90
21419;DHT22;10870;51.384;10.316;2022-12-18T13:04:34;-4.20;99.90
21419;DHT22;10870;51.384;10.316;2022-12-18T13:06:55;-4.20;99.90
21419;DHT22;10870;51.384;10.316;2022-12-18T13:09:00;-4.20;99.90
21419;DHT22;10870;51.384;10.316;2022-12-18T13:11:43;-4.20;99.90
21419;DHT22;10870;51.384;10.316;2022-12-18T13:14:03;-4.20;99.90
21419;DHT22;10870;51.384;10.316;2022-12-18T13:16:08;-4.20;99.90
21419;DHT22;10870;51.384;10.316;2022-12-18T13:18:20;-4.20;99.90
21419;DHT22;10870;51.384;10.316;2022-12-18T13:20:36;-4.30;99.90
21419;DHT22;10870;51.384;10.316;2022-12-18T13:24:43;-4.20;99.90
21419;DHT22;10870;51.384;10.316;2022-12-18T13:26:44;-4.30;99.90
21419;DHT22;10870;51.384;10.316;2022-12-18T13:30:56;-4.30;99.90
21419;DHT22;10870;51.384;10.316;2022-12-18T13:37:54;-4.40;99.90
21419;DHT22;10870;51.384;10.316;2022-12-18T13:39:55;-4.40;99.90
21419;DHT22;10870;51.384;10.316;2022-12-18T13:44:13;-4.40;99.90
21419;DHT22;10870;51.384;10.316;2022-12-18T13:46:46;-4.50;99.90
21419;DHT22;10870;51.384;10.316;2022-12-18T13:49:04;-4.50;99.90
21419;DHT22;10870;51.384;10.316;2022-12-18T13:51:10;-4.50;99.90
21419;DHT22;10870;51.384;10.316;2022-12-18T13:53:23;-4.50;99.90
21419;DHT22;10870;51.384;10.316;2022-12-18T13:55:25;-4.60;99.90
21419;DHT22;10870;51.384;10.316;2022-12-18T13:57:31;-4.60;99.90
21419;DHT22;10870;51.384;10.316;2022-12-18T13:59:37;-4.60;99.90
21419;DHT22;10870;51.384;10.316;2022-12-18T14:01:48;-4.60;99.90
21419;DHT22;10870;51.384;10.316;2022-12-18T14:04:08;-4.60;99.90
21419;DHT22;10870;51.384;10.316;2022-12-18T14:06:11;-4.70;99.90
21419;DHT22;10870;51.384;10.316;2022-12-18T14:08:15;-4.70;99.90
21419;DHT22;10870;51.384;10.316;2022-12-18T14:10:19;-4.70;99.90
21419;DHT22;10870;51.384;10.316;2022-12-18T14:12:31;-4.70;99.90
21419;DHT22;10870;51.384;10.316;2022-12-18T14:14:58;-4.70;99.90
21419;DHT22;10870;51.384;10.316;2022-12-18T14:17:02;-4.80;99.90
21419;DHT22;10870;51.384;10.316;2022-12-18T14:19:17;-4.70;99.90
21419;DHT22;10870;51.384;10.316;2022-12-18T14:21:29;-4.80;99.90
21419;DHT22;10870;51.384;10.316;2022-12-18T14:23:37;-4.80;99.90
21419;DHT22;10870;51.384;10.316;2022-12-18T14:25:39;-4.80;99.90
21419;DHT22;10870;51.384;10.316;2022-12-18T14:29:56;-4.90;99.90
21419;DHT22;10870;51.384;10.316;2022-12-18T14:32:13;-4.90;99.90
21419;DHT22;10870;51.384;10.316;2022-12-18T14:34:19;-4.90;99.90
21419;DHT22;10870;51.384;10.316;2022-12-18T14:36:31;-4.90;99.90
21419;DHT22;10870;51.384;10.316;2022-12-18T14:38:38;-4.90;99.90
21419;DHT22;10870;51.384;10.316;2022-12-18T14:40:40;-5.00;99.90
21419;DHT22;10870;51.384;10.316;2022-12-18T14:42:41;-5.00;99.90
21419;DHT22;10870;51.384;10.316;2022-12-18T14:44:43;-5.00;99.90
21419;DHT22;10870;51.384;10.316;2022-12-18T14:46:46;-5.00;99.90
21419;DHT22;10870;51.384;10.316;2022-12-18T14:48:50;-5.00;99.90
21419;DHT22;10870;51.384;10.316;2022-12-18T14:50:57;-5.00;99.90
21419;DHT22;10870;51.384;10.316;2022-12-18T14:53:00;-5.10;99.90
21419;DHT22;10870;51.384;10.316;2022-12-18T14:55:04;-5.10;99.90
21419;DHT22;10870;51.384;10.316;2022-12-18T14:57:29;-5.10;99.90
21419;DHT22;10870;51.384;10.316;2022-12-18T14:59:33;-5.10;99.90
21419;DHT22;10870;51.384;10.316;2022-12-18T15:03:47;-5.10;99.90
21419;DHT22;10870;51.384;10.316;2022-12-18T15:05:52;-5.10;99.90
21419;DHT22;10870;51.384;10.316;2022-12-18T15:07:55;-5.10;99.90
21419;DHT22;10870;51.384;10.316;2022-12-18T15:12:28;-5.10;99.90
21419;DHT22;10870;51.384;10.316;2022-12-18T15:14:40;-5.10;99.90
21419;DHT22;10870;51.384;10.316;2022-12-18T15:16:42;-5.10;99.90
21419;DHT22;10870;51.384;10.316;2022-12-18T15:18:47;-5.10;99.90
21419;DHT22;10870;51.384;10.316;2022-12-18T15:20:58;-5.10;99.90
21419;DHT22;10870;51.384;10.316;2022-12-18T15:22:59;-5.20;99.90
21419;DHT22;10870;51.384;10.316;2022-12-18T15:25:02;-5.20;99.90
21419;DHT22;10870;51.384;10.316;2022-12-18T15:27:04;-5.20;99.90
21419;DHT22;10870;51.384;10.316;2022-12-18T15:29:22;-5.20;99.90
21419;DHT22;10870;51.384;10.316;2022-12-18T15:31:31;-5.20;99.90
21419;DHT22;10870;51.384;10.316;2022-12-18T15:36:01;-5.20;99.90
21419;DHT22;10870;51.384;10.316;2022-12-18T15:38:07;-5.30;99.90
21419;DHT22;10870;51.384;10.316;2022-12-18T15:40:17;-5.30;99.90
21419;DHT22;10870;51.384;10.316;2022-12-18T15:42:18;-5.30;99.90
21419;DHT22;10870;51.384;10.316;2022-12-18T15:44:40;-5.30;99.90
21419;DHT22;10870;51.384;10.316;2022-12-18T15:46:45;-5.40;99.90
21419;DHT22;10870;51.384;10.316;2022-12-18T15:48:57;-5.40;99.90
21419;DHT22;10870;51.384;10.316;2022-12-18T15:50:59;-5.40;99.90
21419;DHT22;10870;51.384;10.316;2022-12-18T15:53:02;-5.40;99.90
21419;DHT22;10870;51.384;10.316;2022-12-18T15:55:08;-5.40;99.90
21419;DHT22;10870;51.384;10.316;2022-12-18T15:57:31;-5.40;99.90
21419;DHT22;10870;51.384;10.316;2022-12-18T15:59:39;-5.30;99.90
21419;DHT22;10870;51.384;10.316;2022-12-18T16:01:41;-5.40;99.90
21419;DHT22;10870;51.384;10.316;2022-12-18T16:03:43;-5.40;99.90
21419;DHT22;10870;51.384;10.316;2022-12-18T16:05:45;-5.40;99.90
21419;DHT22;10870;51.384;10.316;2022-12-18T16:07:48;-5.40;99.90
21419;DHT22;10870;51.384;10.316;2022-12-18T16:09:52;-5.40;99.90
21419;DHT22;10870;51.384;10.316;2022-12-18T16:11:53;-5.40;99.90
21419;DHT22;10870;51.384;10.316;2022-12-18T16:13:56;-5.40;99.90
21419;DHT22;10870;51.384;10.316;2022-12-18T16:15:57;-5.40;99.90
21419;DHT22;10870;51.384;10.316;2022-12-18T16:18:03;-5.40;99.90
21419;DHT22;10870;51.384;10.316;2022-12-18T16:20:04;-5.40;99.90
21419;DHT22;10870;51.384;10.316;2022-12-18T16:22:08;-5.40;99.90
21419;DHT22;10870;51.384;10.316;2022-12-18T16:24:21;-5.40;99.90
21419;DHT22;10870;51.384;10.316;2022-12-18T16:26:22;-5.40;99.90
21419;DHT22;10870;51.384;10.316;2022-12-18T16:28:24;-5.40;99.90
21419;DHT22;10870;51.384;10.316;2022-12-18T16:30:27;-5.40;99.90
21419;DHT22;10870;51.384;10.316;2022-12-18T16:32:32;-5.40;99.90
21419;DHT22;10870;51.384;10.316;2022-12-18T16:34:35;-5.40;99.90
21419;DHT22;10870;51.384;10.316;2022-12-18T16:36:45;-5.40;99.90
21419;DHT22;10870;51.384;10.316;2022-12-18T16:38:46;-5.40;99.90
21419;DHT22;10870;51.384;10.316;2022-12-18T16:40:46;-5.40;99.90
21419;DHT22;10870;51.384;10.316;2022-12-18T16:43:06;-5.40;99.90
21419;DHT22;10870;51.384;10.316;2022-12-18T16:45:09;-5.40;99.90
21419;DHT22;10870;51.384;10.316;2022-12-18T16:47:10;-5.30;99.90
21419;DHT22;10870;51.384;10.316;2022-12-18T16:49:13;-5.30;99.90
21419;DHT22;10870;51.384;10.316;2022-12-18T16:51:15;-5.30;99.90